Time;durP1;ratioP1;P1;durP2;ratioP2;P2;SDS_P1;SDS_P2;PMS_P1;PMS_P2;Temp;Humidity;BMP_temperature;BMP_pressure;BME280_temperature;BME280_humidity;BME280_pressure;Samples;Min_cycle;Max_cycle;Signal;HPM_P1;HPM_P2
2022/08/01 00:01:40;;;;;;;3.52;2.60;;;;;;;22.06;53.01;99848.81;1817878;78;20979;-66
2022/08/01 00:04:09;;;;;;;7.08;2.90;;;;;;;22.04;53.07;99848.83;1799816;79;21030;-65
2022/08/01 00:06:39;;;;;;;8.13;2.83;;;;;;;22.02;53.16;99849.64;1820119;78;21002;-65
2022/08/01 00:09:10;;;;;;;5.33;2.80;;;;;;;21.94;53.32;99843.27;1775560;80;21488;-65
2022/08/01 00:11:42;;;;;;;5.60;3.37;;;;;;;21.91;53.46;99849.42;1778354;80;21010;-65
2022/08/01 00:14:11;;;;;;;6.00;2.70;;;;;;;21.88;53.58;99847.20;1777791;80;21457;-64
2022/08/01 00:16:41;;;;;;;7.72;2.77;;;;;;;21.82;53.74;99844.44;1745694;82;21030;-66
2022/08/01 00:19:10;;;;;;;4.70;2.60;;;;;;;21.80;54.07;99848.07;1731341;82;21022;-66
2022/08/01 00:21:39;;;;;;;7.03;2.60;;;;;;;21.74;54.22;99840.02;1749930;82;21418;-65
2022/08/01 00:24:11;;;;;;;5.25;2.75;;;;;;;21.70;54.28;99844.49;1742617;82;21047;-65
2022/08/01 00:26:43;;;;;;;3.95;2.60;;;;;;;21.67;54.43;99838.92;1733665;83;21020;-65
2022/08/01 00:29:13;;;;;;;3.17;2.35;;;;;;;21.60;54.57;99841.18;1746971;82;21041;-65
2022/08/01 00:31:45;;;;;;;5.55;2.50;;;;;;;21.57;54.74;99845.93;1752109;82;21049;-65
2022/08/01 00:34:15;;;;;;;3.58;2.70;;;;;;;21.55;54.87;99844.55;1755537;82;21022;-66
2022/08/01 00:36:44;;;;;;;6.33;2.50;;;;;;;21.53;55.07;99837.86;1737379;82;21510;-65
2022/08/01 00:39:13;;;;;;;7.67;2.67;;;;;;;21.49;55.18;99840.37;1729702;82;21305;-65
2022/08/01 00:41:43;;;;;;;3.67;2.50;;;;;;;21.45;55.29;99830.05;1740615;81;21032;-66
2022/08/01 00:44:12;;;;;;;4.12;2.75;;;;;;;21.40;55.43;99838.42;1747232;82;21014;-66
2022/08/01 00:46:43;;;;;;;3.85;2.60;;;;;;;21.39;55.52;99836.20;1755872;82;21070;-66
2022/08/01 00:49:13;;;;;;;5.03;2.67;;;;;;;21.36;55.63;99833.14;1738983;81;21437;-65
2022/08/01 00:51:42;;;;;;;8.55;3.35;;;;;;;21.31;55.76;99823.40;1728604;82;20991;-66
2022/08/01 00:54:11;;;;;;;5.92;2.77;;;;;;;21.29;55.83;99830.65;1746733;81;21034;-64
2022/08/01 00:56:42;;;;;;;5.12;2.65;;;;;;;21.29;56.02;99820.06;1747881;81;21070;-65
2022/08/01 00:59:12;;;;;;;5.75;2.45;;;;;;;21.26;55.99;99819.23;1748897;81;21431;-65
2022/08/01 01:01:46;;;;;;;4.12;2.60;;;;;;;21.26;56.17;99830.38;1716249;83;21085;-64
2022/08/01 01:04:18;;;;;;;3.67;2.47;;;;;;;21.20;56.37;99825.34;1740806;81;21102;-66
2022/08/01 01:07:07;;;;;;;7.35;2.85;;;;;;;21.17;56.50;99823.95;1758774;81;21075;-65
2022/08/01 01:09:58;;;;;;;6.33;3.00;;;;;;;21.15;56.57;99823.41;1755962;81;21141;-64
2022/08/01 01:12:59;;;;;;;7.62;3.22;;;;;;;21.11;56.64;99823.69;1759305;81;21049;-66
2022/08/01 01:15:41;;;;;;;7.95;2.90;;;;;;;21.05;56.80;99828.16;1710321;83;21503;-66
2022/08/01 01:18:18;;;;;;;5.40;2.70;;;;;;;21.00;57.03;99824.82;1723437;82;21074;-64
2022/08/01 01:21:02;;;;;;;6.17;2.65;;;;;;;20.96;57.07;99820.09;1708598;83;21094;-65
2022/08/01 01:23:53;;;;;;;4.40;2.55;;;;;;;20.93;57.12;99825.66;1737661;81;21715;-65
2022/08/01 01:27:08;;;;;;;6.62;2.92;;;;;;;20.90;57.25;99820.66;1713902;82;21010;-64
2022/08/01 01:29:51;;;;;;;5.67;2.92;;;;;;;20.85;57.49;99808.96;1706034;82;21066;-65
2022/08/01 01:32:38;;;;;;;4.25;2.70;;;;;;;20.85;57.60;99816.48;1738910;82;21014;-65
2022/08/01 01:35:13;;;;;;;4.95;2.60;;;;;;;20.85;57.62;99819.27;1731345;82;21022;-64
2022/08/01 01:37:42;;;;;;;6.15;2.65;;;;;;;20.82;57.64;99817.05;1728100;83;21086;-67
2022/08/01 01:40:12;;;;;;;4.20;2.92;;;;;;;20.77;57.68;99820.63;1730042;82;21095;-64
2022/08/01 01:42:42;;;;;;;7.72;2.60;;;;;;;20.69;57.87;99821.19;1733057;83;21019;-64
2022/08/01 01:45:11;;;;;;;5.50;2.62;;;;;;;20.64;58.05;99823.14;1734963;82;21034;-66
2022/08/01 01:47:40;;;;;;;4.47;2.40;;;;;;;20.64;58.11;99828.70;1753762;82;21006;-65
2022/08/01 01:50:10;;;;;;;3.40;2.42;;;;;;;20.66;58.16;99828.70;1755288;82;21025;-64
2022/08/01 01:52:39;;;;;;;7.25;2.65;;;;;;;20.65;58.15;99828.98;1734980;81;21010;-65
2022/08/01 01:55:09;;;;;;;6.10;2.40;;;;;;;20.61;58.27;99828.70;1735646;82;20975;-64
2022/08/01 01:57:41;;;;;;;5.87;2.40;;;;;;;20.51;58.53;99834.27;1719139;82;21050;-64
2022/08/01 02:00:12;;;;;;;5.65;2.62;;;;;;;20.45;58.67;99835.38;1753868;82;21048;-66
2022/08/01 02:02:42;;;;;;;5.95;2.58;;;;;;;20.45;58.74;99833.98;1732904;82;21094;-67
2022/08/01 02:05:12;;;;;;;4.75;2.37;;;;;;;20.46;58.82;99839.27;1729732;82;21101;-65
2022/08/01 02:07:42;;;;;;;5.00;2.70;;;;;;;20.46;58.94;99834.27;1753494;82;21097;-65
2022/08/01 02:10:12;;;;;;;4.72;2.45;;;;;;;20.45;58.86;99828.41;1730606;81;21078;-64
2022/08/01 02:12:42;;;;;;;9.88;2.80;;;;;;;20.46;58.83;99831.48;1734812;82;21050;-64
2022/08/01 02:15:14;;;;;;;6.33;2.70;;;;;;;20.46;58.87;99829.53;1707914;83;21019;-65
2022/08/01 02:17:47;;;;;;;5.12;2.58;;;;;;;20.46;58.83;99828.14;1746095;82;21055;-65
2022/08/01 02:20:16;;;;;;;4.85;2.55;;;;;;;20.52;58.76;99835.38;1746063;82;21011;-66
2022/08/01 02:22:52;;;;;;;5.40;2.67;;;;;;;20.56;58.68;99830.93;1739709;82;21029;-65
2022/08/01 02:25:36;;;;;;;6.03;2.92;;;;;;;20.61;58.83;99835.66;1721014;83;21089;-66
2022/08/01 02:28:10;;;;;;;6.10;2.80;;;;;;;20.62;58.76;99825.37;1730588;83;21018;-66
2022/08/01 02:30:42;;;;;;;5.78;2.45;;;;;;;20.66;58.65;99830.66;1743494;82;21058;-65
2022/08/01 02:33:20;;;;;;;3.33;2.62;;;;;;;20.66;58.53;99824.53;1742845;82;21029;-65
2022/08/01 02:35:52;;;;;;;5.92;2.62;;;;;;;20.70;58.41;99828.98;1748733;82;21041;-66
2022/08/01 02:38:26;;;;;;;6.95;2.70;;;;;;;20.69;58.66;99821.75;1751528;82;21560;-65
2022/08/01 02:40:57;;;;;;;6.00;2.95;;;;;;;20.66;58.72;99824.53;1744879;82;21504;-64
2022/08/01 02:43:28;;;;;;;5.65;2.72;;;;;;;20.65;58.58;99820.08;1745796;82;21069;-65
2022/08/01 02:46:00;;;;;;;4.85;2.75;;;;;;;20.66;58.86;99813.95;1746240;82;21014;-65
2022/08/01 02:48:30;;;;;;;4.72;2.90;;;;;;;20.65;58.84;99813.11;1736841;82;21054;-65
2022/08/01 02:51:00;;;;;;;4.30;2.60;;;;;;;20.65;58.79;99817.84;1737630;82;21505;-65
2022/08/01 02:53:36;;;;;;;6.90;2.75;;;;;;;20.64;58.76;99814.79;1748409;82;21082;-65
2022/08/01 02:56:06;;;;;;;4.80;2.67;;;;;;;20.64;58.54;99812.84;1749830;82;21050;-64
2022/08/01 02:58:37;;;;;;;5.33;2.87;;;;;;;20.67;58.69;99817.02;1745390;82;21057;-66
2022/08/01 03:01:08;;;;;;;5.42;2.70;;;;;;;20.66;58.76;99818.13;1753261;82;21525;-64
2022/08/01 03:03:39;;;;;;;7.08;2.87;;;;;;;20.66;58.71;99819.52;1737548;82;21043;-65
2022/08/01 03:06:08;;;;;;;7.00;3.45;;;;;;;20.67;58.57;99818.41;1734093;82;21082;-65
2022/08/01 03:08:38;;;;;;;8.45;3.37;;;;;;;20.69;58.49;99817.02;1705042;83;21490;-66
2022/08/01 03:11:08;;;;;;;7.83;3.17;;;;;;;20.68;58.31;99818.13;1761111;80;21055;-65
2022/08/01 03:13:37;;;;;;;7.25;3.02;;;;;;;20.65;57.95;99817.84;1759568;80;21030;-66
2022/08/01 03:16:07;;;;;;;5.47;3.02;;;;;;;20.69;57.81;99820.36;1758032;80;21046;-66
2022/08/01 03:18:36;;;;;;;5.47;2.47;;;;;;;20.74;57.21;99821.75;1768506;80;21002;-66
2022/08/01 03:21:07;;;;;;;4.55;2.30;;;;;;;20.78;56.35;99822.86;1732254;81;21065;-64
2022/08/01 03:23:36;;;;;;;3.98;2.10;;;;;;;20.85;55.60;99828.45;1766077;80;21496;-65
2022/08/01 03:26:07;;;;;;;3.05;2.30;;;;;;;20.94;54.43;99823.72;1763117;80;21075;-66
2022/08/01 03:28:37;;;;;;;5.53;2.37;;;;;;;21.02;53.79;99832.89;1770279;80;21098;-66
2022/08/01 03:31:07;;;;;;;6.05;2.20;;;;;;;21.09;53.35;99830.10;1750774;80;21461;-65
2022/08/01 03:33:37;;;;;;;4.92;2.20;;;;;;;21.17;52.77;99835.66;1747161;81;21419;-66
2022/08/01 03:36:09;;;;;;;4.87;2.30;;;;;;;21.21;52.46;99834.81;1754132;80;21089;-64
2022/08/01 03:38:39;;;;;;;6.22;2.50;;;;;;;21.26;52.17;99827.59;1738726;81;21051;-67
2022/08/01 03:41:21;;;;;;;4.05;2.20;;;;;;;21.31;52.12;99831.77;1761149;80;21453;-65
2022/08/01 03:44:02;;;;;;;5.90;1.87;;;;;;;21.35;51.67;99829.52;1745667;81;21018;-66
2022/08/01 03:46:50;;;;;;;4.00;2.02;;;;;;;21.40;51.07;99824.48;1733403;81;21066;-65
2022/08/01 03:49:23;;;;;;;5.30;2.00;;;;;;;21.41;50.74;99826.16;1739472;81;21094;-65
2022/08/01 03:51:53;;;;;;;4.78;2.17;;;;;;;21.44;50.67;99824.20;1730827;81;21085;-65
2022/08/01 03:54:24;;;;;;;4.15;1.98;;;;;;;21.44;50.62;99826.42;1767412;80;21041;-65
2022/08/01 03:56:54;;;;;;;3.65;2.02;;;;;;;21.48;50.50;99821.15;1740078;80;21082;-66
2022/08/01 03:59:24;;;;;;;3.25;2.10;;;;;;;21.49;50.34;99815.30;1752079;81;21396;-65
2022/08/01 04:01:54;;;;;;;2.50;2.00;;;;;;;21.54;49.80;99824.20;1750376;81;21399;-67
2022/08/01 04:04:24;;;;;;;3.62;1.95;;;;;;;21.56;49.72;99820.56;1739085;80;21006;-65
2022/08/01 04:06:54;;;;;;;4.15;2.12;;;;;;;21.57;49.52;99819.45;1750882;80;21459;-66
2022/08/01 04:09:23;;;;;;;3.58;2.08;;;;;;;21.59;49.50;99824.17;1741554;80;21532;-65
2022/08/01 04:11:52;;;;;;;4.92;2.60;;;;;;;21.58;49.19;99827.25;1735988;82;21042;-67
2022/08/01 04:14:23;;;;;;;4.40;1.92;;;;;;;21.56;49.40;99820.56;1743718;82;21014;-65
2022/08/01 04:16:52;;;;;;;4.03;1.90;;;;;;;21.59;49.24;99828.36;1759112;81;21042;-66
2022/08/01 04:19:22;;;;;;;7.72;2.08;;;;;;;21.60;49.01;99826.41;1728047;83;21026;-65
2022/08/01 04:21:52;;;;;;;6.75;2.20;;;;;;;21.61;49.16;99824.73;1756878;81;21003;-64
2022/08/01 04:24:21;;;;;;;4.85;2.17;;;;;;;21.65;48.93;99821.64;1712636;82;21121;-65
2022/08/01 04:26:51;;;;;;;4.60;2.17;;;;;;;21.67;48.95;99824.98;1723820;81;21453;-65
2022/08/01 04:29:21;;;;;;;5.17;2.12;;;;;;;21.69;48.85;99818.56;1740012;81;21018;-66
2022/08/01 04:31:50;;;;;;;6.78;1.75;;;;;;;21.74;48.71;99814.35;1745327;82;21461;-67
2022/08/01 04:34:21;;;;;;;4.53;2.17;;;;;;;21.79;48.39;99819.08;1725638;82;21497;-66
2022/08/01 04:36:52;;;;;;;4.40;1.80;;;;;;;21.84;48.18;99822.67;1732663;81;20983;-65
2022/08/01 04:39:23;;;;;;;5.75;2.30;;;;;;;21.88;48.20;99819.31;1717400;83;21494;-66
2022/08/01 04:41:56;;;;;;;8.00;2.42;;;;;;;21.91;47.85;99825.15;1758225;81;21023;-63
2022/08/01 04:44:27;;;;;;;3.80;2.00;;;;;;;21.95;48.07;99824.02;1685861;83;21066;-65
2022/08/01 04:47:02;;;;;;;4.67;2.47;;;;;;;21.97;47.47;99817.59;1733552;83;20990;-65
2022/08/01 04:49:32;;;;;;;4.20;2.05;;;;;;;21.96;47.57;99818.16;1746159;81;21010;-63
2022/08/01 04:52:06;;;;;;;3.95;2.12;;;;;;;21.98;47.49;99810.89;1686295;83;21076;-65
2022/08/01 04:54:37;;;;;;;4.75;1.90;;;;;;;22.02;47.39;99808.63;1721226;82;21083;-66
2022/08/01 04:57:07;;;;;;;5.72;2.00;;;;;;;22.03;47.05;99810.33;1709760;82;21070;-66
2022/08/01 04:59:42;;;;;;;5.03;1.90;;;;;;;22.07;46.87;99806.41;1706155;82;21030;-66
2022/08/01 05:02:15;;;;;;;5.83;2.08;;;;;;;22.13;46.90;99806.12;1706644;82;21088;-65
2022/08/01 05:04:45;;;;;;;4.85;2.17;;;;;;;22.22;46.69;99804.11;1738663;81;21518;-66
2022/08/01 05:07:15;;;;;;;7.42;2.58;;;;;;;22.30;46.22;99807.12;1751254;81;21035;-66
2022/08/01 05:09:46;;;;;;;4.53;1.90;;;;;;;22.37;45.80;99815.17;1737321;82;21161;-66
2022/08/01 05:12:16;;;;;;;5.75;2.05;;;;;;;22.39;45.84;99809.56;1740473;82;21473;-65
2022/08/01 05:14:46;;;;;;;3.47;2.15;;;;;;;22.42;45.93;99803.41;1737645;81;21107;-65
2022/08/01 05:17:17;;;;;;;4.95;2.52;;;;;;;22.48;45.74;99803.37;1733778;82;21029;-65
2022/08/01 05:19:45;;;;;;;6.20;2.05;;;;;;;22.54;45.67;99810.02;1744044;82;21051;-67
2022/08/01 05:22:16;;;;;;;8.98;2.08;;;;;;;22.64;45.22;99797.93;1743586;82;21003;-67
2022/08/01 05:24:46;;;;;;;10.10;3.00;;;;;;;22.70;44.86;99798.16;1744399;82;21070;-65
2022/08/01 05:27:18;;;;;;;6.65;2.35;;;;;;;22.78;45.03;99800.35;1712375;83;21027;-67
2022/08/01 05:29:48;;;;;;;4.83;2.40;;;;;;;22.94;44.76;99806.66;1722048;82;21090;-65
2022/08/01 05:32:17;;;;;;;5.08;2.20;;;;;;;23.15;44.49;99814.28;1721083;82;21035;-66
2022/08/01 05:34:46;;;;;;;6.47;2.20;;;;;;;23.43;44.04;99805.62;1732303;82;21022;-66
2022/08/01 05:37:15;;;;;;;5.10;2.08;;;;;;;23.67;43.60;99812.91;1746273;82;21062;-68
2022/08/01 05:39:45;;;;;;;4.22;2.20;;;;;;;23.92;43.14;99810.91;1712702;83;21050;-66
2022/08/01 05:42:16;;;;;;;6.25;1.95;;;;;;;24.09;42.63;99811.82;1749361;82;21090;-66
2022/08/01 05:44:45;;;;;;;5.33;2.40;;;;;;;24.26;42.33;99805.13;1719620;82;21065;-65
2022/08/01 05:47:15;;;;;;;4.28;2.25;;;;;;;24.34;41.68;99805.88;1737410;81;21023;-66
2022/08/01 05:49:45;;;;;;;8.40;2.40;;;;;;;24.27;41.98;99807.66;1730329;82;21034;-67
2022/08/01 05:52:15;;;;;;;4.53;2.50;;;;;;;24.26;41.81;99811.56;1748531;82;21027;-66
2022/08/01 05:54:45;;;;;;;8.60;2.60;;;;;;;24.23;42.05;99815.53;1748131;82;21050;-65
2022/08/01 05:57:16;;;;;;;2.92;2.37;;;;;;;24.23;42.13;99814.97;1733347;82;21026;-67
2022/08/01 05:59:45;;;;;;;6.75;2.40;;;;;;;24.32;42.19;99819.35;1755881;82;21050;-65
2022/08/01 06:02:15;;;;;;;6.15;2.30;;;;;;;24.45;42.06;99820.56;1719044;82;21480;-66
2022/08/01 06:04:45;;;;;;;5.42;2.55;;;;;;;24.59;41.85;99819.48;1754611;82;21090;-65
2022/08/01 06:07:15;;;;;;;4.85;2.52;;;;;;;24.70;41.41;99815.95;1748246;81;21046;-64
2022/08/01 06:09:45;;;;;;;3.70;2.00;;;;;;;24.75;41.65;99816.46;1725704;82;21076;-66
2022/08/01 06:12:15;;;;;;;5.42;1.98;;;;;;;24.80;41.46;99808.80;1745492;82;21069;-67
2022/08/01 06:14:45;;;;;;;6.17;2.72;;;;;;;24.81;41.41;99810.46;1756132;82;21093;-65
2022/08/01 06:17:15;;;;;;;8.33;2.85;;;;;;;24.81;41.58;99807.66;1755964;81;21106;-66
2022/08/01 06:19:45;;;;;;;2.98;2.10;;;;;;;24.82;41.66;99799.52;1756112;82;21112;-66
2022/08/01 06:22:15;;;;;;;10.43;2.92;;;;;;;24.90;41.44;99794.61;1755952;82;21062;-68
2022/08/01 06:24:44;;;;;;;6.83;2.52;;;;;;;25.05;41.28;99797.73;1756240;82;21078;-68
2022/08/01 06:27:15;;;;;;;6.65;2.37;;;;;;;25.24;41.31;99788.67;1741427;82;21526;-67
2022/08/01 06:29:46;;;;;;;8.73;3.42;;;;;;;25.40;40.54;99790.64;1755364;82;21011;-67
2022/08/01 06:32:18;;;;;;;6.80;2.72;;;;;;;25.55;40.29;99788.93;1737026;82;20999;-65
2022/08/01 06:34:50;;;;;;;7.45;2.40;;;;;;;25.73;40.46;99787.76;1702252;82;21023;-66
2022/08/01 06:37:21;;;;;;;4.87;2.33;;;;;;;25.93;40.00;99790.13;1700902;82;21035;-66
2022/08/01 06:39:51;;;;;;;7.83;2.40;;;;;;;26.14;39.57;99774.50;1698668;82;21039;-68
2022/08/01 06:42:21;;;;;;;7.62;2.33;;;;;;;26.29;38.98;99775.30;1716188;82;21086;-67
2022/08/01 06:44:51;;;;;;;7.60;2.42;;;;;;;26.33;38.97;99777.75;1728205;82;21067;-68
2022/08/01 06:47:20;;;;;;;11.68;2.60;;;;;;;26.38;38.89;99777.05;1736471;82;21093;-66
2022/08/01 06:49:50;;;;;;;4.72;2.65;;;;;;;26.48;38.65;99768.38;1742449;82;21444;-67
2022/08/01 06:52:20;;;;;;;8.45;2.50;;;;;;;26.61;38.66;99774.25;1706083;83;21040;-66
2022/08/01 06:54:49;;;;;;;10.13;2.65;;;;;;;26.80;38.22;99760.86;1705576;83;21079;-66
2022/08/01 06:57:18;;;;;;;4.92;2.60;;;;;;;26.96;37.72;99759.88;1745756;82;21439;-66
2022/08/01 06:59:47;;;;;;;6.17;2.42;;;;;;;27.13;37.51;99767.03;1751437;82;21006;-66
2022/08/01 07:02:19;;;;;;;9.43;2.45;;;;;;;27.30;37.18;99760.08;1750112;82;21075;-66
2022/08/01 07:04:50;;;;;;;5.25;2.50;;;;;;;27.54;37.04;99765.33;1708176;83;21751;-67
2022/08/01 07:07:19;;;;;;;4.37;2.77;;;;;;;27.81;36.67;99757.81;1732571;82;21300;-66
2022/08/01 07:09:50;;;;;;;6.97;2.25;;;;;;;28.02;36.29;99760.28;1710928;83;21058;-66
2022/08/01 07:12:21;;;;;;;4.53;2.27;;;;;;;28.14;35.94;99758.22;1750647;81;21046;-66
2022/08/01 07:14:51;;;;;;;3.60;2.20;;;;;;;28.21;35.51;99751.52;1798146;79;21093;-65
2022/08/01 07:17:21;;;;;;;4.25;2.45;;;;;;;28.21;35.51;99751.52;1822557;79;21057;-67
2022/08/01 07:19:50;;;;;;;6.20;2.40;;;;;;;28.36;35.04;99750.47;1793041;78;20982;-65
2022/08/01 07:22:19;;;;;;;6.70;2.25;;;;;;;28.36;35.04;99750.47;1790120;79;21419;-65
2022/08/01 07:24:51;;;;;;;6.92;2.12;;;;;;;28.59;34.91;99748.29;1794525;79;21018;-66
2022/08/01 07:27:22;;;;;;;7.72;2.40;;;;;;;28.90;34.38;99750.12;1798105;78;21050;-65
2022/08/01 07:29:53;;;;;;;4.12;2.17;;;;;;;29.14;33.53;99751.78;1749578;81;20998;-66
2022/08/01 07:32:24;;;;;;;9.38;4.20;;;;;;;29.22;33.78;99748.10;1744798;81;21054;-66
2022/08/01 07:34:54;;;;;;;9.18;2.90;;;;;;;29.28;33.71;99751.02;1760888;81;21031;-66
2022/08/01 07:37:23;;;;;;;4.97;2.70;;;;;;;29.33;33.66;99746.59;1741978;81;21034;-65
2022/08/01 07:39:56;;;;;;;6.95;2.60;;;;;;;29.38;33.74;99746.98;1736787;81;21051;-67
2022/08/01 07:42:26;;;;;;;7.40;2.50;;;;;;;29.50;33.43;99737.24;1801106;79;21509;-66
2022/08/01 07:44:55;;;;;;;6.05;2.12;;;;;;;29.66;33.33;99741.72;1786714;79;21046;-65
2022/08/01 07:47:25;;;;;;;4.03;2.10;;;;;;;29.86;32.74;99739.52;1822585;79;21029;-65
2022/08/01 07:50:01;;;;;;;5.22;2.42;;;;;;;29.93;32.68;99739.00;1795573;78;21049;-66
2022/08/01 07:52:31;;;;;;;9.08;2.40;;;;;;;29.97;32.80;99739.39;1752162;82;20999;-67
2022/08/01 07:55:01;;;;;;;3.52;2.17;;;;;;;29.95;32.93;99744.55;1801922;79;20971;-68
2022/08/01 07:57:31;;;;;;;6.83;2.55;;;;;;;29.93;32.79;99737.59;1796795;78;21031;-67
2022/08/01 08:00:01;;;;;;;6.95;2.50;;;;;;;29.90;33.00;99738.25;1804519;79;20994;-69
2022/08/01 08:02:33;;;;;;;5.08;3.08;;;;;;;29.85;32.95;99738.45;1794266;79;21006;-69
2022/08/01 08:05:03;;;;;;;9.90;3.17;;;;;;;29.76;33.34;99738.50;1790012;78;21442;-67
2022/08/01 08:07:35;;;;;;;6.53;2.77;;;;;;;29.66;33.64;99741.72;1804908;79;21057;-67
2022/08/01 08:10:06;;;;;;;9.70;2.60;;;;;;;29.73;33.63;99729.89;1823061;79;21500;-66
2022/08/01 08:12:35;;;;;;;6.80;2.40;;;;;;;29.90;33.33;99750.37;1776068;79;21089;-65
2022/08/01 08:15:06;;;;;;;7.00;2.52;;;;;;;30.13;33.11;99743.88;1792926;79;21006;-67
2022/08/01 08:17:35;;;;;;;5.25;3.87;;;;;;;30.32;32.90;99736.91;1800720;79;21079;-66
2022/08/01 08:20:07;;;;;;;5.25;3.85;;;;;;;30.44;32.80;99735.55;1788889;79;21048;-65
2022/08/01 08:22:39;;;;;;;6.78;3.25;;;;;;;30.61;32.74;99738.86;1754079;81;21015;-67
2022/08/01 08:25:08;;;;;;;4.83;2.70;;;;;;;30.67;32.95;99733.22;1752470;82;20995;-66
2022/08/01 08:27:41;;;;;;;5.37;2.60;;;;;;;30.81;32.63;99732.33;1750110;82;21047;-66
2022/08/01 08:30:11;;;;;;;8.28;2.75;;;;;;;31.03;32.47;99734.73;1753280;81;21090;-67
2022/08/01 08:32:40;;;;;;;6.67;2.40;;;;;;;31.24;32.08;99734.71;1728678;81;21436;-67
2022/08/01 08:35:10;;;;;;;7.97;2.92;;;;;;;31.35;32.04;99723.75;1749459;82;21090;-67
2022/08/01 08:37:44;;;;;;;8.08;3.50;;;;;;;31.40;31.79;99722.10;1740132;80;21094;-67
2022/08/01 08:40:16;;;;;;;8.65;2.98;;;;;;;31.28;31.80;99712.19;1770994;80;21051;-67
2022/08/01 08:42:46;;;;;;;8.58;3.15;;;;;;;31.24;32.24;99725.39;1802704;79;21034;-67
2022/08/01 08:45:15;;;;;;;7.80;3.22;;;;;;;31.25;32.18;99717.14;1797696;79;21026;-67
2022/08/01 08:47:46;;;;;;;6.53;3.02;;;;;;;31.24;32.33;99723.98;1808162;78;21054;-68
2022/08/01 08:50:16;;;;;;;7.15;2.72;;;;;;;31.27;32.28;99721.86;1778434;79;21026;-67
2022/08/01 08:52:47;;;;;;;4.70;2.87;;;;;;;31.40;32.33;99722.10;1782849;79;21014;-69
2022/08/01 08:55:18;;;;;;;8.45;3.10;;;;;;;31.58;31.75;99724.93;1813520;78;21021;-71
2022/08/01 08:57:49;;;;;;;7.20;3.05;;;;;;;31.59;31.87;99729.41;1801800;78;21094;-70
2022/08/01 09:00:18;;;;;;;5.95;3.15;;;;;;;31.66;31.65;99729.64;1796465;79;21042;-71
2022/08/01 09:02:55;;;;;;;7.78;3.27;;;;;;;31.66;31.82;99723.16;1820012;79;21006;-72
2022/08/01 09:05:27;;;;;;;6.28;2.87;;;;;;;31.71;31.78;99727.19;1780788;79;21014;-71
2022/08/01 09:07:58;;;;;;;5.22;2.92;;;;;;;31.64;32.06;99726.34;1791128;80;21034;-71
2022/08/01 09:10:28;;;;;;;7.55;4.03;;;;;;;31.61;31.81;99731.30;1819845;79;21073;-72
2022/08/01 09:13:11;;;;;;;15.65;4.40;;;;;;;31.46;32.07;99737.67;1796325;78;21072;-71
2022/08/01 09:15:49;;;;;;;10.00;3.58;;;;;;;31.24;32.64;99733.89;1791700;80;21050;-64
2022/08/01 09:18:40;;;;;;;8.85;3.77;;;;;;;31.14;32.79;99723.78;1791397;79;21065;-67
2022/08/01 09:21:19;;;;;;;9.45;3.42;;;;;;;30.89;33.24;99727.16;1784446;80;21014;-68
2022/08/01 09:23:54;;;;;;;7.78;3.00;;;;;;;30.80;33.60;99734.92;1779782;80;21011;-66
2022/08/01 09:26:33;;;;;;;9.80;3.50;;;;;;;30.72;33.63;99733.01;1790732;80;21062;-66
2022/08/01 09:29:05;;;;;;;8.33;3.40;;;;;;;30.67;33.85;99727.56;1792742;79;21046;-69
2022/08/01 09:31:44;;;;;;;6.60;3.33;;;;;;;30.57;34.25;99730.21;1793353;80;21135;-68
2022/08/01 09:34:16;;;;;;;7.72;5.47;;;;;;;30.43;34.27;99729.06;1780602;80;21006;-66
2022/08/01 09:36:58;;;;;;;6.85;3.30;;;;;;;30.32;34.61;99730.66;1785602;80;21034;-68
2022/08/01 09:39:37;;;;;;;11.10;3.55;;;;;;;30.28;34.90;99726.28;1791705;80;21049;-66
2022/08/01 09:42:24;;;;;;;6.70;3.35;;;;;;;30.22;35.26;99725.43;1781955;80;21011;-67
2022/08/01 09:44:56;;;;;;;7.37;3.85;;;;;;;30.22;35.37;99734.73;1793084;79;20971;-69
2022/08/01 09:47:39;;;;;;;11.03;4.17;;;;;;;30.12;35.69;99727.27;1792861;80;21069;-67
2022/08/01 09:50:10;;;;;;;5.92;3.58;;;;;;;30.11;35.77;99733.50;1780849;80;21046;-71
2022/08/01 09:52:40;;;;;;;14.07;3.35;;;;;;;30.11;36.00;99727.02;1777801;80;21030;-71
2022/08/01 09:55:10;;;;;;;9.55;3.67;;;;;;;30.10;36.31;99729.02;1792117;80;21046;-71
2022/08/01 09:57:41;;;;;;;5.28;3.00;;;;;;;30.14;36.45;99729.16;1793121;80;21026;-70
2022/08/01 10:00:17;;;;;;;6.65;3.08;;;;;;;30.24;36.21;99717.44;1737724;80;21045;-70
2022/08/01 10:02:49;;;;;;;5.03;3.45;;;;;;;30.23;36.35;99721.44;1743062;81;21081;-68
2022/08/01 10:05:33;;;;;;;10.90;3.50;;;;;;;30.11;36.70;99734.91;1747224;82;21034;-69
2022/08/01 10:08:05;;;;;;;6.30;3.40;;;;;;;30.03;37.01;99725.09;1738928;81;20995;-72
2022/08/01 10:10:36;;;;;;;7.65;3.58;;;;;;;30.09;37.00;99727.95;1739747;82;21086;-68
2022/08/01 10:13:06;;;;;;;13.70;5.80;;;;;;;30.11;36.89;99722.78;1749468;82;21049;-69
2022/08/01 10:15:39;;;;;;;10.68;4.53;;;;;;;30.04;37.39;99726.74;1747662;82;21010;-67
2022/08/01 10:18:10;;;;;;;7.67;3.72;;;;;;;30.01;37.57;99717.51;1719228;82;21105;-70
2022/08/01 10:20:42;;;;;;;7.40;3.50;;;;;;;30.07;37.74;99722.64;1714338;82;21111;-68
2022/08/01 10:23:12;;;;;;;11.80;3.58;;;;;;;30.06;38.11;99713.92;1730721;82;21062;-70
2022/08/01 10:25:42;;;;;;;6.90;3.08;;;;;;;30.06;38.11;99713.92;1738248;82;21094;-69
2022/08/01 10:28:17;;;;;;;6.10;3.47;;;;;;;30.04;37.76;99709.79;1734787;81;21043;-70
2022/08/01 10:30:48;;;;;;;6.85;3.65;;;;;;;29.99;37.63;99715.03;1745737;81;21147;-73
2022/08/01 10:33:18;;;;;;;5.53;3.17;;;;;;;29.95;37.48;99712.06;1761132;81;21058;-71
2022/08/01 10:35:53;;;;;;;9.23;3.65;;;;;;;29.97;37.47;99704.07;1763288;81;21079;-73
2022/08/01 10:38:25;;;;;;;7.15;3.70;;;;;;;30.03;37.35;99710.38;1741534;82;21034;-72
2022/08/01 10:40:55;;;;;;;12.23;3.52;;;;;;;30.09;37.60;99702.52;1747768;81;21026;-73
2022/08/01 10:43:25;;;;;;;6.15;3.30;;;;;;;30.04;37.39;99701.31;1727887;82;21060;-73
2022/08/01 10:45:55;;;;;;;9.45;3.85;;;;;;;29.90;37.69;99712.23;1746218;81;21086;-74
2022/08/01 10:48:40;;;;;;;4.60;3.62;;;;;;;29.80;37.74;99705.58;1640220;87;21042;-73
2022/08/01 10:51:11;;;;;;;6.03;3.42;;;;;;;29.80;38.02;99699.11;1625792;87;21137;-76
2022/08/01 10:53:53;;;;;;;8.93;3.60;;;;;;;29.80;38.02;99699.11;1625604;88;21053;-73
2022/08/01 10:56:24;;;;;;;6.45;3.35;;;;;;;29.80;38.23;99696.28;1636775;87;21546;-75
2022/08/01 10:59:03;;;;;;;5.20;3.67;;;;;;;29.79;38.40;99697.45;1643557;87;21081;-72
2022/08/01 11:01:35;;;;;;;7.70;4.80;;;;;;;29.80;38.38;99695.70;1638262;87;21147;-75
2022/08/01 11:04:14;;;;;;;9.78;5.47;;;;;;;29.82;38.49;99701.00;1627462;87;21106;-72
2022/08/01 11:07:04;;;;;;;10.58;3.62;;;;;;;29.84;38.62;99696.66;1688962;82;21454;-72
2022/08/01 11:09:47;;;;;;;6.40;3.60;;;;;;;29.86;38.60;99697.14;1735059;82;21056;-71
2022/08/01 11:12:20;;;;;;;5.40;3.50;;;;;;;29.79;38.87;99709.58;1758508;81;22263;-75
2022/08/01 11:15:07;;;;;;;5.00;3.80;;;;;;;29.73;39.06;99703.89;1753604;82;21042;-71
2022/08/01 11:17:47;;;;;;;6.28;3.40;;;;;;;29.76;39.00;99703.20;1743979;82;21064;-70
2022/08/01 11:20:30;;;;;;;5.47;3.50;;;;;;;29.79;38.83;99699.69;1735930;82;21078;-73
2022/08/01 11:23:05;;;;;;;6.10;3.37;;;;;;;29.74;38.85;99694.83;1734197;82;21516;-73
2022/08/01 11:25:46;;;;;;;5.25;3.50;;;;;;;29.68;39.00;99706.91;1724401;83;21073;-74
2022/08/01 11:28:25;;;;;;;4.83;3.60;;;;;;;29.63;39.08;99708.52;1715217;83;21606;-79
2022/08/01 11:31:16;;;;;;;5.62;3.77;;;;;;;29.61;39.97;99702.39;1712769;83;21531;-73
2022/08/01 11:33:48;;;;;;;6.50;3.40;;;;;;;29.61;39.97;99702.39;1741451;82;21109;-74
2022/08/01 11:36:20;;;;;;;4.80;3.70;;;;;;;29.57;39.65;99702.25;1755322;82;21065;-72
2022/08/01 11:39:06;;;;;;;5.03;3.65;;;;;;;29.39;39.54;99706.89;1713268;82;21111;-73
2022/08/01 11:41:38;;;;;;;6.87;4.17;;;;;;;29.39;39.54;99706.89;1712687;82;21466;-75
2022/08/01 11:44:13;;;;;;;6.10;4.03;;;;;;;29.38;39.70;99705.23;1744095;82;20988;-72
2022/08/01 11:47:07;;;;;;;5.15;3.80;;;;;;;29.45;39.42;99704.97;1721896;82;20987;-75
2022/08/01 11:49:48;;;;;;;5.70;4.17;;;;;;;29.55;39.05;99698.94;1725943;83;21082;-72
2022/08/01 11:52:40;;;;;;;5.42;4.00;;;;;;;29.64;39.06;99702.53;1746959;82;21450;-75
2022/08/01 11:55:10;;;;;;;6.92;4.55;;;;;;;29.64;39.06;99702.53;1714752;83;20990;-73
2022/08/01 11:57:41;;;;;;;8.45;4.70;;;;;;;29.71;39.30;99709.05;1734066;82;21031;-73
2022/08/01 12:00:18;;;;;;;7.37;4.40;;;;;;;29.76;39.49;99704.61;1746025;82;21018;-72